sensor_id;sensor_type;location;lat;lon;timestamp;P1;durP1;ratioP1;P2;durP2;ratioP2
48629;SDS011;34426;52.180;4.462;2023-08-06T00:01:50;8.85;;;7.95;;
48629;SDS011;34426;52.180;4.462;2023-08-06T00:04:17;13.15;;;8.48;;
48629;SDS011;34426;52.180;4.462;2023-08-06T00:06:42;11.90;;;8.15;;
48629;SDS011;34426;52.180;4.462;2023-08-06T00:09:08;9.70;;;7.93;;
48629;SDS011;34426;52.180;4.462;2023-08-06T00:11:33;8.50;;;7.68;;
48629;SDS011;34426;52.180;4.462;2023-08-06T00:13:59;11.10;;;8.18;;
48629;SDS011;34426;52.180;4.462;2023-08-06T00:16:25;9.70;;;8.40;;
48629;SDS011;34426;52.180;4.462;2023-08-06T00:18:50;10.88;;;8.10;;
48629;SDS011;34426;52.180;4.462;2023-08-06T00:21:17;10.85;;;7.50;;
48629;SDS011;34426;52.180;4.462;2023-08-06T00:23:43;14.50;;;8.13;;
48629;SDS011;34426;52.180;4.462;2023-08-06T00:26:08;8.85;;;7.63;;
48629;SDS011;34426;52.180;4.462;2023-08-06T00:28:34;9.52;;;7.88;;
48629;SDS011;34426;52.180;4.462;2023-08-06T00:30:59;8.30;;;7.47;;
48629;SDS011;34426;52.180;4.462;2023-08-06T00:33:25;8.88;;;7.63;;
48629;SDS011;34426;52.180;4.462;2023-08-06T00:35:50;8.57;;;6.93;;
48629;SDS011;34426;52.180;4.462;2023-08-06T00:38:17;7.45;;;6.75;;
48629;SDS011;34426;52.180;4.462;2023-08-06T00:40:43;7.10;;;6.40;;
48629;SDS011;34426;52.180;4.462;2023-08-06T00:43:08;7.40;;;6.70;;
48629;SDS011;34426;52.180;4.462;2023-08-06T00:45:34;8.38;;;7.00;;
48629;SDS011;34426;52.180;4.462;2023-08-06T00:48:01;9.88;;;7.05;;
48629;SDS011;34426;52.180;4.462;2023-08-06T00:50:28;7.05;;;6.35;;
48629;SDS011;34426;52.180;4.462;2023-08-06T00:52:54;7.20;;;6.50;;
48629;SDS011;34426;52.180;4.462;2023-08-06T00:55:21;8.55;;;6.47;;
48629;SDS011;34426;52.180;4.462;2023-08-06T00:57:47;6.78;;;6.07;;
48629;SDS011;34426;52.180;4.462;2023-08-06T01:00:13;8.57;;;6.40;;
48629;SDS011;34426;52.180;4.462;2023-08-06T01:02:38;7.18;;;6.47;;
48629;SDS011;34426;52.180;4.462;2023-08-06T01:05:04;6.25;;;5.65;;
48629;SDS011;34426;52.180;4.462;2023-08-06T01:07:33;6.90;;;6.18;;
48629;SDS011;34426;52.180;4.462;2023-08-06T01:10:15;7.32;;;6.38;;
48629;SDS011;34426;52.180;4.462;2023-08-06T01:12:52;8.10;;;6.20;;
48629;SDS011;34426;52.180;4.462;2023-08-06T01:15:27;6.20;;;5.60;;
48629;SDS011;34426;52.180;4.462;2023-08-06T01:17:56;6.82;;;6.13;;
48629;SDS011;34426;52.180;4.462;2023-08-06T01:20:27;6.55;;;5.72;;
48629;SDS011;34426;52.180;4.462;2023-08-06T01:22:53;6.25;;;5.40;;
48629;SDS011;34426;52.180;4.462;2023-08-06T01:25:18;6.65;;;5.95;;
48629;SDS011;34426;52.180;4.462;2023-08-06T01:27:46;5.38;;;4.88;;
48629;SDS011;34426;52.180;4.462;2023-08-06T01:30:15;6.72;;;5.20;;
48629;SDS011;34426;52.180;4.462;2023-08-06T01:32:43;6.32;;;5.63;;
48629;SDS011;34426;52.180;4.462;2023-08-06T01:35:11;6.60;;;5.68;;
48629;SDS011;34426;52.180;4.462;2023-08-06T01:37:40;5.85;;;5.20;;
48629;SDS011;34426;52.180;4.462;2023-08-06T01:40:07;6.05;;;5.28;;
48629;SDS011;34426;52.180;4.462;2023-08-06T01:42:35;5.15;;;4.68;;
48629;SDS011;34426;52.180;4.462;2023-08-06T01:45:00;10.00;;;4.97;;
48629;SDS011;34426;52.180;4.462;2023-08-06T01:47:26;8.25;;;4.80;;
48629;SDS011;34426;52.180;4.462;2023-08-06T01:49:51;4.55;;;3.95;;
48629;SDS011;34426;52.180;4.462;2023-08-06T01:52:17;3.75;;;3.40;;
48629;SDS011;34426;52.180;4.462;2023-08-06T01:54:44;5.95;;;2.72;;
48629;SDS011;34426;52.180;4.462;2023-08-06T01:57:09;4.78;;;2.35;;
48629;SDS011;34426;52.180;4.462;2023-08-06T01:59:35;4.05;;;2.17;;
48629;SDS011;34426;52.180;4.462;2023-08-06T02:02:00;2.35;;;1.88;;
48629;SDS011;34426;52.180;4.462;2023-08-06T02:04:26;1.70;;;1.33;;
48629;SDS011;34426;52.180;4.462;2023-08-06T02:06:51;5.93;;;1.63;;
48629;SDS011;34426;52.180;4.462;2023-08-06T02:09:17;4.38;;;1.73;;
48629;SDS011;34426;52.180;4.462;2023-08-06T02:11:43;3.15;;;2.85;;
48629;SDS011;34426;52.180;4.462;2023-08-06T02:14:09;5.30;;;4.03;;
48629;SDS011;34426;52.180;4.462;2023-08-06T02:16:34;5.00;;;4.50;;
48629;SDS011;34426;52.180;4.462;2023-08-06T02:19:00;6.85;;;4.97;;
48629;SDS011;34426;52.180;4.462;2023-08-06T02:21:25;8.93;;;5.30;;
48629;SDS011;34426;52.180;4.462;2023-08-06T02:23:51;7.47;;;5.00;;
48629;SDS011;34426;52.180;4.462;2023-08-06T02:26:16;5.70;;;4.90;;
48629;SDS011;34426;52.180;4.462;2023-08-06T02:28:43;5.70;;;5.15;;
48629;SDS011;34426;52.180;4.462;2023-08-06T02:31:09;6.22;;;5.38;;
48629;SDS011;34426;52.180;4.462;2023-08-06T02:33:34;6.22;;;5.65;;
48629;SDS011;34426;52.180;4.462;2023-08-06T02:36:00;6.60;;;5.68;;
48629;SDS011;34426;52.180;4.462;2023-08-06T02:38:26;6.18;;;5.60;;
48629;SDS011;34426;52.180;4.462;2023-08-06T02:40:52;9.10;;;6.90;;
48629;SDS011;34426;52.180;4.462;2023-08-06T02:43:17;10.98;;;7.43;;
48629;SDS011;34426;52.180;4.462;2023-08-06T02:45:44;10.82;;;8.15;;
48629;SDS011;34426;52.180;4.462;2023-08-06T02:48:10;10.20;;;8.60;;
48629;SDS011;34426;52.180;4.462;2023-08-06T02:50:38;8.48;;;7.57;;
48629;SDS011;34426;52.180;4.462;2023-08-06T02:53:04;9.95;;;8.98;;
48629;SDS011;34426;52.180;4.462;2023-08-06T02:55:29;10.10;;;9.02;;
48629;SDS011;34426;52.180;4.462;2023-08-06T02:57:55;9.38;;;8.35;;
48629;SDS011;34426;52.180;4.462;2023-08-06T03:00:20;10.68;;;9.57;;
48629;SDS011;34426;52.180;4.462;2023-08-06T03:02:47;11.70;;;9.02;;
48629;SDS011;34426;52.180;4.462;2023-08-06T03:05:13;11.77;;;10.23;;
48629;SDS011;34426;52.180;4.462;2023-08-06T03:07:38;12.75;;;9.50;;
48629;SDS011;34426;52.180;4.462;2023-08-06T03:10:04;14.43;;;9.73;;
48629;SDS011;34426;52.180;4.462;2023-08-06T03:12:30;14.50;;;10.23;;
48629;SDS011;34426;52.180;4.462;2023-08-06T03:14:55;14.35;;;10.60;;
48629;SDS011;34426;52.180;4.462;2023-08-06T03:17:21;13.68;;;10.52;;
48629;SDS011;34426;52.180;4.462;2023-08-06T03:19:48;18.17;;;11.75;;
48629;SDS011;34426;52.180;4.462;2023-08-06T03:22:13;16.85;;;12.55;;
48629;SDS011;34426;52.180;4.462;2023-08-06T03:24:39;16.95;;;12.52;;
48629;SDS011;34426;52.180;4.462;2023-08-06T03:27:05;23.52;;;11.88;;
48629;SDS011;34426;52.180;4.462;2023-08-06T03:29:30;12.10;;;6.80;;
48629;SDS011;34426;52.180;4.462;2023-08-06T03:31:56;13.73;;;4.95;;
48629;SDS011;34426;52.180;4.462;2023-08-06T03:34:21;15.38;;;3.50;;
48629;SDS011;34426;52.180;4.462;2023-08-06T03:36:48;14.13;;;3.65;;
48629;SDS011;34426;52.180;4.462;2023-08-06T03:39:14;11.73;;;3.10;;
48629;SDS011;34426;52.180;4.462;2023-08-06T03:41:39;9.45;;;3.30;;
48629;SDS011;34426;52.180;4.462;2023-08-06T03:44:05;7.70;;;3.25;;
48629;SDS011;34426;52.180;4.462;2023-08-06T03:46:30;13.43;;;4.22;;
48629;SDS011;34426;52.180;4.462;2023-08-06T03:48:56;7.38;;;2.88;;
48629;SDS011;34426;52.180;4.462;2023-08-06T03:51:22;9.25;;;3.83;;
48629;SDS011;34426;52.180;4.462;2023-08-06T03:53:48;9.57;;;3.63;;
48629;SDS011;34426;52.180;4.462;2023-08-06T03:56:14;13.02;;;3.38;;
48629;SDS011;34426;52.180;4.462;2023-08-06T03:58:39;10.73;;;3.72;;
48629;SDS011;34426;52.180;4.462;2023-08-06T04:01:05;10.80;;;3.47;;
48629;SDS011;34426;52.180;4.462;2023-08-06T04:03:31;11.05;;;3.15;;
48629;SDS011;34426;52.180;4.462;2023-08-06T04:05:56;10.98;;;3.50;;
48629;SDS011;34426;52.180;4.462;2023-08-06T04:08:22;9.70;;;3.35;;
48629;SDS011;34426;52.180;4.462;2023-08-06T04:10:50;8.43;;;3.30;;
48629;SDS011;34426;52.180;4.462;2023-08-06T04:13:17;12.88;;;3.47;;
48629;SDS011;34426;52.180;4.462;2023-08-06T04:15:42;11.55;;;3.60;;
48629;SDS011;34426;52.180;4.462;2023-08-06T04:18:08;8.35;;;3.22;;
48629;SDS011;34426;52.180;4.462;2023-08-06T04:20:34;10.90;;;3.20;;
48629;SDS011;34426;52.180;4.462;2023-08-06T04:23:04;10.02;;;3.40;;
48629;SDS011;34426;52.180;4.462;2023-08-06T04:25:31;8.13;;;3.15;;
48629;SDS011;34426;52.180;4.462;2023-08-06T04:27:58;6.53;;;3.17;;
48629;SDS011;34426;52.180;4.462;2023-08-06T04:30:25;9.07;;;3.80;;
48629;SDS011;34426;52.180;4.462;2023-08-06T04:32:50;14.68;;;3.45;;
48629;SDS011;34426;52.180;4.462;2023-08-06T04:35:16;9.13;;;3.60;;
48629;SDS011;34426;52.180;4.462;2023-08-06T04:37:42;12.15;;;3.28;;
48629;SDS011;34426;52.180;4.462;2023-08-06T04:40:07;7.70;;;3.30;;
48629;SDS011;34426;52.180;4.462;2023-08-06T04:42:34;9.27;;;3.30;;
48629;SDS011;34426;52.180;4.462;2023-08-06T04:45:02;10.48;;;3.67;;
48629;SDS011;34426;52.180;4.462;2023-08-06T04:47:27;7.63;;;3.47;;
48629;SDS011;34426;52.180;4.462;2023-08-06T04:49:56;10.60;;;3.40;;
48629;SDS011;34426;52.180;4.462;2023-08-06T04:52:22;6.78;;;3.63;;
48629;SDS011;34426;52.180;4.462;2023-08-06T04:54:47;8.65;;;3.92;;
48629;SDS011;34426;52.180;4.462;2023-08-06T04:57:15;8.63;;;3.53;;
48629;SDS011;34426;52.180;4.462;2023-08-06T04:59:40;7.45;;;3.42;;
48629;SDS011;34426;52.180;4.462;2023-08-06T05:02:07;6.93;;;3.25;;
48629;SDS011;34426;52.180;4.462;2023-08-06T05:04:32;7.82;;;3.45;;
48629;SDS011;34426;52.180;4.462;2023-08-06T05:07:01;12.95;;;3.55;;
48629;SDS011;34426;52.180;4.462;2023-08-06T05:09:26;14.57;;;4.32;;
48629;SDS011;34426;52.180;4.462;2023-08-06T05:11:52;7.38;;;3.45;;
48629;SDS011;34426;52.180;4.462;2023-08-06T05:14:17;11.60;;;3.85;;
48629;SDS011;34426;52.180;4.462;2023-08-06T05:16:43;7.20;;;3.67;;
48629;SDS011;34426;52.180;4.462;2023-08-06T05:19:13;8.15;;;3.15;;
48629;SDS011;34426;52.180;4.462;2023-08-06T05:21:39;17.13;;;3.35;;
48629;SDS011;34426;52.180;4.462;2023-08-06T05:24:04;9.65;;;2.80;;
48629;SDS011;34426;52.180;4.462;2023-08-06T05:26:30;8.00;;;3.20;;
48629;SDS011;34426;52.180;4.462;2023-08-06T05:28:55;10.90;;;3.13;;
48629;SDS011;34426;52.180;4.462;2023-08-06T05:31:21;8.65;;;3.85;;
48629;SDS011;34426;52.180;4.462;2023-08-06T05:33:46;15.98;;;3.80;;
48629;SDS011;34426;52.180;4.462;2023-08-06T05:36:13;10.07;;;4.03;;
48629;SDS011;34426;52.180;4.462;2023-08-06T05:38:39;20.98;;;4.07;;
48629;SDS011;34426;52.180;4.462;2023-08-06T05:41:05;11.65;;;3.50;;
48629;SDS011;34426;52.180;4.462;2023-08-06T05:43:30;13.52;;;3.90;;
48629;SDS011;34426;52.180;4.462;2023-08-06T05:45:56;11.07;;;3.13;;
48629;SDS011;34426;52.180;4.462;2023-08-06T05:48:22;10.10;;;3.03;;
48629;SDS011;34426;52.180;4.462;2023-08-06T05:50:47;8.95;;;2.80;;
48629;SDS011;34426;52.180;4.462;2023-08-06T05:53:14;10.00;;;2.78;;
48629;SDS011;34426;52.180;4.462;2023-08-06T05:55:40;10.27;;;2.88;;
48629;SDS011;34426;52.180;4.462;2023-08-06T05:58:05;11.25;;;2.38;;
48629;SDS011;34426;52.180;4.462;2023-08-06T06:00:31;11.13;;;2.50;;
48629;SDS011;34426;52.180;4.462;2023-08-06T06:02:57;12.35;;;2.83;;
48629;SDS011;34426;52.180;4.462;2023-08-06T06:05:22;7.40;;;2.38;;
48629;SDS011;34426;52.180;4.462;2023-08-06T06:07:48;10.05;;;2.10;;
48629;SDS011;34426;52.180;4.462;2023-08-06T06:10:15;11.80;;;2.38;;
48629;SDS011;34426;52.180;4.462;2023-08-06T06:12:41;6.15;;;1.98;;
48629;SDS011;34426;52.180;4.462;2023-08-06T06:15:06;8.52;;;1.92;;
48629;SDS011;34426;52.180;4.462;2023-08-06T06:17:32;7.55;;;2.30;;
48629;SDS011;34426;52.180;4.462;2023-08-06T06:19:58;9.52;;;1.73;;
48629;SDS011;34426;52.180;4.462;2023-08-06T06:22:23;7.80;;;2.10;;
48629;SDS011;34426;52.180;4.462;2023-08-06T06:24:49;9.43;;;1.77;;
48629;SDS011;34426;52.180;4.462;2023-08-06T06:27:16;10.77;;;1.65;;
48629;SDS011;34426;52.180;4.462;2023-08-06T06:29:41;7.15;;;2.35;;
48629;SDS011;34426;52.180;4.462;2023-08-06T06:32:08;4.38;;;1.30;;
48629;SDS011;34426;52.180;4.462;2023-08-06T06:34:33;9.75;;;1.58;;
48629;SDS011;34426;52.180;4.462;2023-08-06T06:36:59;8.57;;;1.17;;
48629;SDS011;34426;52.180;4.462;2023-08-06T06:39:27;9.07;;;1.70;;
48629;SDS011;34426;52.180;4.462;2023-08-06T06:41:52;5.20;;;1.38;;
48629;SDS011;34426;52.180;4.462;2023-08-06T06:44:20;8.13;;;1.40;;
48629;SDS011;34426;52.180;4.462;2023-08-06T06:46:45;3.08;;;0.90;;
48629;SDS011;34426;52.180;4.462;2023-08-06T06:49:11;5.13;;;1.52;;
48629;SDS011;34426;52.180;4.462;2023-08-06T06:51:37;5.97;;;1.27;;
48629;SDS011;34426;52.180;4.462;2023-08-06T06:54:03;8.18;;;1.45;;
48629;SDS011;34426;52.180;4.462;2023-08-06T06:56:28;7.93;;;1.58;;
48629;SDS011;34426;52.180;4.462;2023-08-06T06:58:54;2.70;;;1.02;;
48629;SDS011;34426;52.180;4.462;2023-08-06T07:01:21;5.93;;;1.45;;
48629;SDS011;34426;52.180;4.462;2023-08-06T07:03:46;6.65;;;1.40;;
48629;SDS011;34426;52.180;4.462;2023-08-06T07:06:12;3.55;;;1.50;;
48629;SDS011;34426;52.180;4.462;2023-08-06T07:08:38;5.72;;;1.38;;
48629;SDS011;34426;52.180;4.462;2023-08-06T07:11:07;6.32;;;1.77;;
48629;SDS011;34426;52.180;4.462;2023-08-06T07:13:33;9.73;;;1.27;;
48629;SDS011;34426;52.180;4.462;2023-08-06T07:16:01;9.82;;;2.00;;
48629;SDS011;34426;52.180;4.462;2023-08-06T07:18:29;3.78;;;1.30;;
48629;SDS011;34426;52.180;4.462;2023-08-06T07:20:54;9.82;;;1.65;;
48629;SDS011;34426;52.180;4.462;2023-08-06T07:23:20;4.30;;;1.30;;
48629;SDS011;34426;52.180;4.462;2023-08-06T07:25:47;3.58;;;1.50;;
48629;SDS011;34426;52.180;4.462;2023-08-06T07:28:16;2.97;;;1.20;;
48629;SDS011;34426;52.180;4.462;2023-08-06T07:30:43;7.22;;;1.38;;
48629;SDS011;34426;52.180;4.462;2023-08-06T07:33:10;8.85;;;1.50;;
48629;SDS011;34426;52.180;4.462;2023-08-06T07:35:42;5.43;;;1.25;;
48629;SDS011;34426;52.180;4.462;2023-08-06T07:38:08;6.18;;;1.30;;
48629;SDS011;34426;52.180;4.462;2023-08-06T07:40:37;5.10;;;1.33;;
48629;SDS011;34426;52.180;4.462;2023-08-06T07:43:03;4.93;;;1.33;;
48629;SDS011;34426;52.180;4.462;2023-08-06T07:45:32;6.47;;;1.73;;
48629;SDS011;34426;52.180;4.462;2023-08-06T07:47:58;4.20;;;1.58;;
48629;SDS011;34426;52.180;4.462;2023-08-06T07:50:24;5.45;;;1.50;;
48629;SDS011;34426;52.180;4.462;2023-08-06T07:52:51;5.30;;;1.40;;
48629;SDS011;34426;52.180;4.462;2023-08-06T07:55:19;6.40;;;1.60;;
48629;SDS011;34426;52.180;4.462;2023-08-06T07:57:49;5.70;;;1.85;;
48629;SDS011;34426;52.180;4.462;2023-08-06T08:00:17;6.60;;;1.40;;
48629;SDS011;34426;52.180;4.462;2023-08-06T08:02:43;5.88;;;1.48;;
48629;SDS011;34426;52.180;4.462;2023-08-06T08:05:09;4.80;;;1.17;;
48629;SDS011;34426;52.180;4.462;2023-08-06T08:07:35;2.72;;;1.25;;
48629;SDS011;34426;52.180;4.462;2023-08-06T08:10:04;4.32;;;1.38;;
48629;SDS011;34426;52.180;4.462;2023-08-06T08:14:59;11.20;;;2.10;;
48629;SDS011;34426;52.180;4.462;2023-08-06T08:17:24;5.43;;;1.92;;
48629;SDS011;34426;52.180;4.462;2023-08-06T08:19:52;4.32;;;1.60;;
48629;SDS011;34426;52.180;4.462;2023-08-06T08:22:21;3.45;;;1.50;;
48629;SDS011;34426;52.180;4.462;2023-08-06T08:24:47;5.00;;;1.98;;
48629;SDS011;34426;52.180;4.462;2023-08-06T08:27:17;6.22;;;2.22;;
48629;SDS011;34426;52.180;4.462;2023-08-06T08:29:43;7.05;;;1.90;;
48629;SDS011;34426;52.180;4.462;2023-08-06T08:32:14;5.93;;;1.73;;
48629;SDS011;34426;52.180;4.462;2023-08-06T08:34:40;8.27;;;2.03;;
48629;SDS011;34426;52.180;4.462;2023-08-06T08:37:09;7.85;;;2.35;;
48629;SDS011;34426;52.180;4.462;2023-08-06T08:39:35;7.90;;;2.42;;
48629;SDS011;34426;52.180;4.462;2023-08-06T08:42:01;6.55;;;2.00;;
48629;SDS011;34426;52.180;4.462;2023-08-06T08:44:28;5.97;;;1.75;;
48629;SDS011;34426;52.180;4.462;2023-08-06T08:46:53;5.55;;;1.67;;
48629;SDS011;34426;52.180;4.462;2023-08-06T08:49:20;9.38;;;1.70;;
48629;SDS011;34426;52.180;4.462;2023-08-06T08:51:48;4.45;;;1.70;;
48629;SDS011;34426;52.180;4.462;2023-08-06T08:54:18;5.72;;;2.03;;
48629;SDS011;34426;52.180;4.462;2023-08-06T08:56:45;5.28;;;1.58;;
48629;SDS011;34426;52.180;4.462;2023-08-06T08:59:13;6.03;;;1.77;;
48629;SDS011;34426;52.180;4.462;2023-08-06T09:01:46;3.55;;;1.98;;
48629;SDS011;34426;52.180;4.462;2023-08-06T09:04:14;5.00;;;1.60;;
48629;SDS011;34426;52.180;4.462;2023-08-06T09:06:40;7.25;;;1.67;;
48629;SDS011;34426;52.180;4.462;2023-08-06T09:09:08;3.47;;;1.42;;
48629;SDS011;34426;52.180;4.462;2023-08-06T09:11:39;8.10;;;1.58;;
48629;SDS011;34426;52.180;4.462;2023-08-06T09:14:13;4.38;;;2.00;;
48629;SDS011;34426;52.180;4.462;2023-08-06T09:16:41;7.03;;;1.58;;
48629;SDS011;34426;52.180;4.462;2023-08-06T09:19:09;3.47;;;1.35;;
48629;SDS011;34426;52.180;4.462;2023-08-06T09:21:36;3.65;;;1.35;;
48629;SDS011;34426;52.180;4.462;2023-08-06T09:24:06;3.88;;;1.38;;
48629;SDS011;34426;52.180;4.462;2023-08-06T09:26:33;6.55;;;1.42;;
48629;SDS011;34426;52.180;4.462;2023-08-06T09:29:03;4.13;;;1.30;;
48629;SDS011;34426;52.180;4.462;2023-08-06T09:31:32;3.47;;;1.67;;
48629;SDS011;34426;52.180;4.462;2023-08-06T09:34:10;3.85;;;1.10;;
48629;SDS011;34426;52.180;4.462;2023-08-06T09:36:40;6.40;;;1.38;;
48629;SDS011;34426;52.180;4.462;2023-08-06T09:39:16;7.15;;;1.52;;
48629;SDS011;34426;52.180;4.462;2023-08-06T09:41:43;2.90;;;1.55;;
48629;SDS011;34426;52.180;4.462;2023-08-06T09:44:15;6.00;;;1.50;;
48629;SDS011;34426;52.180;4.462;2023-08-06T09:46:41;2.83;;;1.23;;
48629;SDS011;34426;52.180;4.462;2023-08-06T09:49:07;2.42;;;0.95;;
48629;SDS011;34426;52.180;4.462;2023-08-06T09:51:34;4.20;;;1.23;;
48629;SDS011;34426;52.180;4.462;2023-08-06T09:54:02;1.85;;;1.25;;
48629;SDS011;34426;52.180;4.462;2023-08-06T09:56:43;4.40;;;1.27;;
48629;SDS011;34426;52.180;4.462;2023-08-06T09:59:09;3.83;;;1.20;;
48629;SDS011;34426;52.180;4.462;2023-08-06T10:01:35;5.50;;;1.27;;
48629;SDS011;34426;52.180;4.462;2023-08-06T10:04:01;2.33;;;1.10;;
48629;SDS011;34426;52.180;4.462;2023-08-06T10:06:29;3.25;;;1.13;;
48629;SDS011;34426;52.180;4.462;2023-08-06T10:08:56;5.20;;;1.40;;
48629;SDS011;34426;52.180;4.462;2023-08-06T10:11:24;3.85;;;1.10;;
48629;SDS011;34426;52.180;4.462;2023-08-06T10:13:50;3.47;;;1.40;;
48629;SDS011;34426;52.180;4.462;2023-08-06T10:16:22;4.10;;;1.27;;
48629;SDS011;34426;52.180;4.462;2023-08-06T10:18:48;4.32;;;1.02;;
48629;SDS011;34426;52.180;4.462;2023-08-06T10:21:15;2.83;;;1.08;;
48629;SDS011;34426;52.180;4.462;2023-08-06T10:23:41;7.93;;;1.27;;
48629;SDS011;34426;52.180;4.462;2023-08-06T10:26:08;3.63;;;1.25;;
48629;SDS011;34426;52.180;4.462;2023-08-06T10:28:35;3.47;;;1.40;;
48629;SDS011;34426;52.180;4.462;2023-08-06T10:31:02;3.58;;;1.20;;
48629;SDS011;34426;52.180;4.462;2023-08-06T10:33:31;6.25;;;2.00;;
48629;SDS011;34426;52.180;4.462;2023-08-06T10:36:06;1.85;;;1.08;;
48629;SDS011;34426;52.180;4.462;2023-08-06T10:38:43;2.03;;;1.00;;
48629;SDS011;34426;52.180;4.462;2023-08-06T10:41:15;4.55;;;1.40;;
48629;SDS011;34426;52.180;4.462;2023-08-06T10:43:52;2.63;;;1.10;;
48629;SDS011;34426;52.180;4.462;2023-08-06T10:46:31;7.70;;;1.27;;
48629;SDS011;34426;52.180;4.462;2023-08-06T10:48:57;4.10;;;1.75;;
48629;SDS011;34426;52.180;4.462;2023-08-06T10:51:25;4.35;;;1.20;;
48629;SDS011;34426;52.180;4.462;2023-08-06T10:53:51;5.15;;;1.98;;
48629;SDS011;34426;52.180;4.462;2023-08-06T10:56:18;3.33;;;1.40;;
48629;SDS011;34426;52.180;4.462;2023-08-06T10:58:45;3.42;;;1.75;;
48629;SDS011;34426;52.180;4.462;2023-08-06T11:01:14;4.32;;;1.35;;
48629;SDS011;34426;52.180;4.462;2023-08-06T11:03:41;1.55;;;0.98;;
48629;SDS011;34426;52.180;4.462;2023-08-06T11:06:07;5.13;;;1.30;;
48629;SDS011;34426;52.180;4.462;2023-08-06T11:08:36;7.75;;;1.60;;
48629;SDS011;34426;52.180;4.462;2023-08-06T11:11:08;3.22;;;1.10;;
48629;SDS011;34426;52.180;4.462;2023-08-06T11:16:08;4.03;;;1.15;;
48629;SDS011;34426;52.180;4.462;2023-08-06T11:18:34;13.27;;;2.35;;
48629;SDS011;34426;52.180;4.462;2023-08-06T11:21:00;3.40;;;1.25;;
48629;SDS011;34426;52.180;4.462;2023-08-06T11:23:29;4.00;;;1.20;;
48629;SDS011;34426;52.180;4.462;2023-08-06T11:25:55;2.63;;;1.20;;
48629;SDS011;34426;52.180;4.462;2023-08-06T11:28:21;5.72;;;1.23;;
48629;SDS011;34426;52.180;4.462;2023-08-06T11:30:51;10.90;;;1.23;;
48629;SDS011;34426;52.180;4.462;2023-08-06T11:33:19;3.83;;;1.02;;
48629;SDS011;34426;52.180;4.462;2023-08-06T11:35:45;4.55;;;1.35;;
48629;SDS011;34426;52.180;4.462;2023-08-06T11:38:11;5.05;;;1.15;;
48629;SDS011;34426;52.180;4.462;2023-08-06T11:40:38;5.30;;;0.70;;
48629;SDS011;34426;52.180;4.462;2023-08-06T11:43:05;6.03;;;1.02;;
48629;SDS011;34426;52.180;4.462;2023-08-06T11:45:31;5.30;;;1.00;;
48629;SDS011;34426;52.180;4.462;2023-08-06T11:48:01;3.00;;;0.95;;
48629;SDS011;34426;52.180;4.462;2023-08-06T11:50:27;5.28;;;1.00;;
48629;SDS011;34426;52.180;4.462;2023-08-06T11:52:53;4.60;;;1.05;;
48629;SDS011;34426;52.180;4.462;2023-08-06T11:55:22;4.65;;;1.10;;
48629;SDS011;34426;52.180;4.462;2023-08-06T11:57:49;1.48;;;0.70;;
48629;SDS011;34426;52.180;4.462;2023-08-06T12:00:15;2.70;;;1.00;;
48629;SDS011;34426;52.180;4.462;2023-08-06T12:02:41;2.78;;;0.60;;
48629;SDS011;34426;52.180;4.462;2023-08-06T12:05:11;7.18;;;1.25;;
48629;SDS011;34426;52.180;4.462;2023-08-06T12:07:42;7.07;;;1.48;;
48629;SDS011;34426;52.180;4.462;2023-08-06T12:10:09;7.85;;;1.25;;
48629;SDS011;34426;52.180;4.462;2023-08-06T12:12:35;9.02;;;0.60;;
48629;SDS011;34426;52.180;4.462;2023-08-06T12:15:04;1.88;;;0.68;;
48629;SDS011;34426;52.180;4.462;2023-08-06T12:17:31;5.32;;;0.60;;
48629;SDS011;34426;52.180;4.462;2023-08-06T12:20:00;1.70;;;0.80;;
48629;SDS011;34426;52.180;4.462;2023-08-06T12:22:28;3.03;;;0.95;;
48629;SDS011;34426;52.180;4.462;2023-08-06T12:24:56;3.25;;;0.85;;
48629;SDS011;34426;52.180;4.462;2023-08-06T12:27:25;3.60;;;0.80;;
48629;SDS011;34426;52.180;4.462;2023-08-06T12:29:58;5.13;;;0.80;;
48629;SDS011;34426;52.180;4.462;2023-08-06T12:32:27;0.88;;;0.40;;
48629;SDS011;34426;52.180;4.462;2023-08-06T12:34:52;5.97;;;0.55;;
48629;SDS011;34426;52.180;4.462;2023-08-06T12:37:19;3.40;;;0.70;;
48629;SDS011;34426;52.180;4.462;2023-08-06T12:39:50;4.95;;;0.85;;
48629;SDS011;34426;52.180;4.462;2023-08-06T12:42:19;3.90;;;1.10;;
48629;SDS011;34426;52.180;4.462;2023-08-06T12:44:45;5.53;;;1.15;;
48629;SDS011;34426;52.180;4.462;2023-08-06T12:47:11;8.07;;;1.10;;
48629;SDS011;34426;52.180;4.462;2023-08-06T12:49:40;4.93;;;1.00;;
48629;SDS011;34426;52.180;4.462;2023-08-06T12:52:06;4.93;;;1.20;;
48629;SDS011;34426;52.180;4.462;2023-08-06T12:54:32;3.85;;;0.65;;
48629;SDS011;34426;52.180;4.462;2023-08-06T12:56:59;3.22;;;1.00;;
48629;SDS011;34426;52.180;4.462;2023-08-06T12:59:28;8.00;;;0.98;;
48629;SDS011;34426;52.180;4.462;2023-08-06T13:01:54;9.73;;;1.45;;
48629;SDS011;34426;52.180;4.462;2023-08-06T13:04:20;9.35;;;0.98;;
48629;SDS011;34426;52.180;4.462;2023-08-06T13:06:46;9.63;;;0.77;;
48629;SDS011;34426;52.180;4.462;2023-08-06T13:09:14;2.08;;;0.82;;
48629;SDS011;34426;52.180;4.462;2023-08-06T13:11:43;3.08;;;0.90;;
48629;SDS011;34426;52.180;4.462;2023-08-06T13:14:11;5.97;;;1.25;;
48629;SDS011;34426;52.180;4.462;2023-08-06T13:16:37;5.25;;;1.05;;
48629;SDS011;34426;52.180;4.462;2023-08-06T13:19:04;10.80;;;2.45;;
48629;SDS011;34426;52.180;4.462;2023-08-06T13:21:32;14.68;;;2.75;;
48629;SDS011;34426;52.180;4.462;2023-08-06T13:24:00;13.35;;;2.42;;
48629;SDS011;34426;52.180;4.462;2023-08-06T13:26:28;11.38;;;2.25;;
48629;SDS011;34426;52.180;4.462;2023-08-06T13:28:54;17.08;;;2.33;;
48629;SDS011;34426;52.180;4.462;2023-08-06T13:31:21;17.83;;;2.80;;
48629;SDS011;34426;52.180;4.462;2023-08-06T13:33:47;17.10;;;3.05;;
48629;SDS011;34426;52.180;4.462;2023-08-06T13:36:15;19.52;;;3.28;;
48629;SDS011;34426;52.180;4.462;2023-08-06T13:38:41;17.95;;;2.70;;
48629;SDS011;34426;52.180;4.462;2023-08-06T13:41:07;15.15;;;2.47;;
48629;SDS011;34426;52.180;4.462;2023-08-06T13:43:34;15.15;;;2.55;;
48629;SDS011;34426;52.180;4.462;2023-08-06T13:46:01;14.38;;;2.15;;
48629;SDS011;34426;52.180;4.462;2023-08-06T13:48:28;15.70;;;2.30;;
48629;SDS011;34426;52.180;4.462;2023-08-06T13:50:54;17.08;;;2.35;;
48629;SDS011;34426;52.180;4.462;2023-08-06T13:53:24;10.18;;;2.22;;
48629;SDS011;34426;52.180;4.462;2023-08-06T13:58:23;18.20;;;1.85;;
48629;SDS011;34426;52.180;4.462;2023-08-06T14:00:50;11.73;;;1.70;;
48629;SDS011;34426;52.180;4.462;2023-08-06T14:03:18;17.95;;;2.30;;
48629;SDS011;34426;52.180;4.462;2023-08-06T14:05:45;18.70;;;2.72;;
48629;SDS011;34426;52.180;4.462;2023-08-06T14:08:11;18.15;;;2.30;;
48629;SDS011;34426;52.180;4.462;2023-08-06T14:10:37;26.30;;;3.45;;
48629;SDS011;34426;52.180;4.462;2023-08-06T14:13:03;21.98;;;3.08;;
48629;SDS011;34426;52.180;4.462;2023-08-06T14:15:29;24.58;;;4.00;;
48629;SDS011;34426;52.180;4.462;2023-08-06T14:17:57;19.40;;;3.67;;
48629;SDS011;34426;52.180;4.462;2023-08-06T14:20:27;23.50;;;3.80;;
48629;SDS011;34426;52.180;4.462;2023-08-06T14:22:59;24.27;;;3.05;;
48629;SDS011;34426;52.180;4.462;2023-08-06T14:25:25;16.63;;;3.25;;
48629;SDS011;34426;52.180;4.462;2023-08-06T14:27:51;23.02;;;3.20;;
48629;SDS011;34426;52.180;4.462;2023-08-06T14:30:17;20.98;;;2.78;;
48629;SDS011;34426;52.180;4.462;2023-08-06T14:32:42;21.77;;;3.15;;
48629;SDS011;34426;52.180;4.462;2023-08-06T14:35:08;16.98;;;2.80;;
48629;SDS011;34426;52.180;4.462;2023-08-06T14:37:34;24.33;;;3.15;;
48629;SDS011;34426;52.180;4.462;2023-08-06T14:40:02;20.65;;;2.78;;
48629;SDS011;34426;52.180;4.462;2023-08-06T14:42:28;23.55;;;3.25;;
48629;SDS011;34426;52.180;4.462;2023-08-06T14:44:53;17.80;;;2.92;;
48629;SDS011;34426;52.180;4.462;2023-08-06T14:47:19;18.80;;;2.65;;
48629;SDS011;34426;52.180;4.462;2023-08-06T14:49:51;24.52;;;3.50;;